sensor_id;sensor_type;location;lat;lon;timestamp;temperature;humidity
7822;DHT22;3956;50.558;9.678;2022-07-29T00:02:27;20.30;99.90
7822;DHT22;3956;50.558;9.678;2022-07-29T00:04:56;20.20;99.90
7822;DHT22;3956;50.558;9.678;2022-07-29T00:07:25;20.20;99.90
7822;DHT22;3956;50.558;9.678;2022-07-29T00:09:53;20.20;99.90
7822;DHT22;3956;50.558;9.678;2022-07-29T00:12:23;20.20;99.90
7822;DHT22;3956;50.558;9.678;2022-07-29T00:14:53;20.30;99.90
7822;DHT22;3956;50.558;9.678;2022-07-29T00:17:23;20.30;99.90
7822;DHT22;3956;50.558;9.678;2022-07-29T00:19:53;20.20;99.90
7822;DHT22;3956;50.558;9.678;2022-07-29T00:22:21;20.20;99.90
7822;DHT22;3956;50.558;9.678;2022-07-29T00:24:50;20.20;99.90
7822;DHT22;3956;50.558;9.678;2022-07-29T00:27:18;20.30;99.90
7822;DHT22;3956;50.558;9.678;2022-07-29T00:29:46;20.20;99.90
7822;DHT22;3956;50.558;9.678;2022-07-29T00:32:16;20.10;99.90
7822;DHT22;3956;50.558;9.678;2022-07-29T00:34:44;20.10;99.90
7822;DHT22;3956;50.558;9.678;2022-07-29T00:37:31;20.10;99.90
7822;DHT22;3956;50.558;9.678;2022-07-29T00:40:00;20.00;99.90
7822;DHT22;3956;50.558;9.678;2022-07-29T00:42:28;19.90;99.90
7822;DHT22;3956;50.558;9.678;2022-07-29T00:44:56;19.90;99.90
7822;DHT22;3956;50.558;9.678;2022-07-29T00:47:25;20.00;99.90
7822;DHT22;3956;50.558;9.678;2022-07-29T00:49:53;19.90;99.90
7822;DHT22;3956;50.558;9.678;2022-07-29T00:52:22;19.90;99.90
7822;DHT22;3956;50.558;9.678;2022-07-29T00:54:52;19.90;99.90
7822;DHT22;3956;50.558;9.678;2022-07-29T00:57:20;19.80;99.90
7822;DHT22;3956;50.558;9.678;2022-07-29T00:59:49;19.80;99.90
7822;DHT22;3956;50.558;9.678;2022-07-29T01:02:17;19.70;99.90
7822;DHT22;3956;50.558;9.678;2022-07-29T01:04:46;19.80;99.90
7822;DHT22;3956;50.558;9.678;2022-07-29T01:07:14;19.70;99.90
7822;DHT22;3956;50.558;9.678;2022-07-29T01:09:44;19.70;99.90
7822;DHT22;3956;50.558;9.678;2022-07-29T01:12:17;19.60;99.90
7822;DHT22;3956;50.558;9.678;2022-07-29T01:14:46;19.60;99.90
7822;DHT22;3956;50.558;9.678;2022-07-29T01:17:20;19.50;99.90
7822;DHT22;3956;50.558;9.678;2022-07-29T01:19:56;19.50;99.90
7822;DHT22;3956;50.558;9.678;2022-07-29T01:22:29;19.50;99.90
7822;DHT22;3956;50.558;9.678;2022-07-29T01:25:17;19.50;99.90
7822;DHT22;3956;50.558;9.678;2022-07-29T01:28:03;19.50;99.90
7822;DHT22;3956;50.558;9.678;2022-07-29T01:30:40;19.40;99.90
7822;DHT22;3956;50.558;9.678;2022-07-29T01:33:14;19.40;99.90
7822;DHT22;3956;50.558;9.678;2022-07-29T01:36:07;19.30;99.90
7822;DHT22;3956;50.558;9.678;2022-07-29T01:38:39;19.30;99.90
7822;DHT22;3956;50.558;9.678;2022-07-29T01:41:12;19.30;99.90
7822;DHT22;3956;50.558;9.678;2022-07-29T01:43:49;19.30;99.90
7822;DHT22;3956;50.558;9.678;2022-07-29T01:46:24;19.40;99.90
7822;DHT22;3956;50.558;9.678;2022-07-29T01:48:57;19.30;99.90
7822;DHT22;3956;50.558;9.678;2022-07-29T01:51:31;19.30;99.90
7822;DHT22;3956;50.558;9.678;2022-07-29T01:54:04;19.30;99.90
7822;DHT22;3956;50.558;9.678;2022-07-29T01:56:35;19.30;99.90
7822;DHT22;3956;50.558;9.678;2022-07-29T01:59:06;19.30;99.90
7822;DHT22;3956;50.558;9.678;2022-07-29T02:01:39;19.20;99.90
7822;DHT22;3956;50.558;9.678;2022-07-29T02:04:10;19.20;99.90
7822;DHT22;3956;50.558;9.678;2022-07-29T02:06:59;19.10;99.90
7822;DHT22;3956;50.558;9.678;2022-07-29T02:09:29;19.10;99.90
7822;DHT22;3956;50.558;9.678;2022-07-29T02:11:59;19.10;99.90
7822;DHT22;3956;50.558;9.678;2022-07-29T02:14:33;19.00;99.90
7822;DHT22;3956;50.558;9.678;2022-07-29T02:17:03;18.90;99.90
7822;DHT22;3956;50.558;9.678;2022-07-29T02:19:33;18.80;99.90
7822;DHT22;3956;50.558;9.678;2022-07-29T02:22:02;18.80;99.90
7822;DHT22;3956;50.558;9.678;2022-07-29T02:24:32;18.80;99.90
7822;DHT22;3956;50.558;9.678;2022-07-29T02:27:02;18.90;99.90
7822;DHT22;3956;50.558;9.678;2022-07-29T02:29:32;18.80;99.90
7822;DHT22;3956;50.558;9.678;2022-07-29T02:32:04;18.70;1.00
7822;DHT22;3956;50.558;9.678;2022-07-29T02:34:38;18.80;99.90
7822;DHT22;3956;50.558;9.678;2022-07-29T02:37:09;18.80;99.90
7822;DHT22;3956;50.558;9.678;2022-07-29T02:39:41;18.80;99.90
7822;DHT22;3956;50.558;9.678;2022-07-29T02:42:11;18.40;1.00
7822;DHT22;3956;50.558;9.678;2022-07-29T02:44:40;18.30;1.00
7822;DHT22;3956;50.558;9.678;2022-07-29T02:47:16;18.10;1.00
7822;DHT22;3956;50.558;9.678;2022-07-29T02:49:52;18.10;1.00
7822;DHT22;3956;50.558;9.678;2022-07-29T02:52:26;18.10;1.00
7822;DHT22;3956;50.558;9.678;2022-07-29T02:54:56;18.10;1.00
7822;DHT22;3956;50.558;9.678;2022-07-29T02:57:32;18.20;1.00
7822;DHT22;3956;50.558;9.678;2022-07-29T03:00:21;18.10;1.00
7822;DHT22;3956;50.558;9.678;2022-07-29T03:02:53;18.00;1.00
7822;DHT22;3956;50.558;9.678;2022-07-29T03:05:23;18.00;1.00
7822;DHT22;3956;50.558;9.678;2022-07-29T03:07:55;17.90;1.00
7822;DHT22;3956;50.558;9.678;2022-07-29T03:10:26;17.80;1.00
7822;DHT22;3956;50.558;9.678;2022-07-29T03:12:55;17.80;1.00
7822;DHT22;3956;50.558;9.678;2022-07-29T03:15:25;17.80;1.00
7822;DHT22;3956;50.558;9.678;2022-07-29T03:17:55;17.70;1.00
7822;DHT22;3956;50.558;9.678;2022-07-29T03:20:26;17.70;1.00
7822;DHT22;3956;50.558;9.678;2022-07-29T03:22:55;17.80;1.00
7822;DHT22;3956;50.558;9.678;2022-07-29T03:25:23;17.80;1.00
7822;DHT22;3956;50.558;9.678;2022-07-29T03:27:51;17.80;1.00
7822;DHT22;3956;50.558;9.678;2022-07-29T03:30:20;17.80;1.00
7822;DHT22;3956;50.558;9.678;2022-07-29T03:32:49;17.70;1.00
7822;DHT22;3956;50.558;9.678;2022-07-29T03:35:20;17.80;1.00
7822;DHT22;3956;50.558;9.678;2022-07-29T03:37:49;17.80;1.00
7822;DHT22;3956;50.558;9.678;2022-07-29T03:40:21;17.90;1.00
7822;DHT22;3956;50.558;9.678;2022-07-29T03:42:51;17.80;1.00
7822;DHT22;3956;50.558;9.678;2022-07-29T03:45:22;17.80;1.00
7822;DHT22;3956;50.558;9.678;2022-07-29T03:47:56;17.80;1.00
7822;DHT22;3956;50.558;9.678;2022-07-29T03:50:29;17.90;1.00
7822;DHT22;3956;50.558;9.678;2022-07-29T03:52:59;17.80;1.00
7822;DHT22;3956;50.558;9.678;2022-07-29T03:55:31;17.90;1.00
7822;DHT22;3956;50.558;9.678;2022-07-29T03:58:00;17.90;1.00
7822;DHT22;3956;50.558;9.678;2022-07-29T04:00:30;17.90;1.00
7822;DHT22;3956;50.558;9.678;2022-07-29T04:03:00;17.90;1.00
7822;DHT22;3956;50.558;9.678;2022-07-29T04:05:31;17.90;1.00
7822;DHT22;3956;50.558;9.678;2022-07-29T04:07:59;17.70;1.00
7822;DHT22;3956;50.558;9.678;2022-07-29T04:10:28;17.90;1.00
7822;DHT22;3956;50.558;9.678;2022-07-29T04:13:01;18.00;1.00
7822;DHT22;3956;50.558;9.678;2022-07-29T04:15:29;18.00;1.00
7822;DHT22;3956;50.558;9.678;2022-07-29T04:17:58;18.10;1.00
7822;DHT22;3956;50.558;9.678;2022-07-29T04:20:26;18.10;99.90
7822;DHT22;3956;50.558;9.678;2022-07-29T04:22:56;18.10;99.90
7822;DHT22;3956;50.558;9.678;2022-07-29T04:25:38;18.20;1.00
7822;DHT22;3956;50.558;9.678;2022-07-29T04:28:09;18.30;99.90
7822;DHT22;3956;50.558;9.678;2022-07-29T04:30:38;18.30;99.90
7822;DHT22;3956;50.558;9.678;2022-07-29T04:33:07;18.20;1.00
7822;DHT22;3956;50.558;9.678;2022-07-29T04:35:57;18.20;99.90
7822;DHT22;3956;50.558;9.678;2022-07-29T04:38:28;18.10;1.00
7822;DHT22;3956;50.558;9.678;2022-07-29T04:40:56;17.90;1.00
7822;DHT22;3956;50.558;9.678;2022-07-29T04:43:25;17.90;1.00
7822;DHT22;3956;50.558;9.678;2022-07-29T04:45:54;18.00;1.00
7822;DHT22;3956;50.558;9.678;2022-07-29T04:48:22;18.00;1.00
7822;DHT22;3956;50.558;9.678;2022-07-29T04:50:55;18.20;99.90
7822;DHT22;3956;50.558;9.678;2022-07-29T04:53:24;18.30;99.90
7822;DHT22;3956;50.558;9.678;2022-07-29T04:55:54;18.30;99.90
7822;DHT22;3956;50.558;9.678;2022-07-29T04:58:22;18.10;99.90
7822;DHT22;3956;50.558;9.678;2022-07-29T05:00:53;18.20;99.90
7822;DHT22;3956;50.558;9.678;2022-07-29T05:03:22;18.10;1.00
7822;DHT22;3956;50.558;9.678;2022-07-29T05:05:50;18.00;1.00
7822;DHT22;3956;50.558;9.678;2022-07-29T05:08:18;18.00;1.00
7822;DHT22;3956;50.558;9.678;2022-07-29T05:10:47;18.10;99.90
7822;DHT22;3956;50.558;9.678;2022-07-29T05:13:16;18.10;99.90
7822;DHT22;3956;50.558;9.678;2022-07-29T05:15:45;18.10;99.90
7822;DHT22;3956;50.558;9.678;2022-07-29T05:18:13;18.20;99.90
7822;DHT22;3956;50.558;9.678;2022-07-29T05:20:42;18.10;99.90
7822;DHT22;3956;50.558;9.678;2022-07-29T05:23:10;18.10;99.90
7822;DHT22;3956;50.558;9.678;2022-07-29T05:25:39;18.10;99.90
7822;DHT22;3956;50.558;9.678;2022-07-29T05:28:10;18.30;99.90
7822;DHT22;3956;50.558;9.678;2022-07-29T05:30:50;18.50;99.90
7822;DHT22;3956;50.558;9.678;2022-07-29T05:33:18;18.70;99.90
7822;DHT22;3956;50.558;9.678;2022-07-29T05:36:03;18.80;99.90
7822;DHT22;3956;50.558;9.678;2022-07-29T05:38:32;18.80;99.90
7822;DHT22;3956;50.558;9.678;2022-07-29T05:41:01;18.70;99.90
7822;DHT22;3956;50.558;9.678;2022-07-29T05:43:30;18.70;99.90
7822;DHT22;3956;50.558;9.678;2022-07-29T05:46:01;18.60;99.90
7822;DHT22;3956;50.558;9.678;2022-07-29T05:48:30;18.60;99.90
7822;DHT22;3956;50.558;9.678;2022-07-29T05:50:58;18.60;99.90
7822;DHT22;3956;50.558;9.678;2022-07-29T05:53:27;18.50;99.90
7822;DHT22;3956;50.558;9.678;2022-07-29T05:55:55;18.40;99.90
7822;DHT22;3956;50.558;9.678;2022-07-29T05:58:23;18.40;99.90
7822;DHT22;3956;50.558;9.678;2022-07-29T06:00:52;18.30;99.90
7822;DHT22;3956;50.558;9.678;2022-07-29T06:03:24;18.20;99.90
7822;DHT22;3956;50.558;9.678;2022-07-29T06:05:52;18.30;99.90
7822;DHT22;3956;50.558;9.678;2022-07-29T06:08:20;18.30;99.90
7822;DHT22;3956;50.558;9.678;2022-07-29T06:10:49;18.20;99.90
7822;DHT22;3956;50.558;9.678;2022-07-29T06:13:17;17.70;99.90
7822;DHT22;3956;50.558;9.678;2022-07-29T06:15:45;17.90;99.90
7822;DHT22;3956;50.558;9.678;2022-07-29T06:18:14;17.70;99.90
7822;DHT22;3956;50.558;9.678;2022-07-29T06:20:43;17.60;99.90
7822;DHT22;3956;50.558;9.678;2022-07-29T06:23:12;17.50;99.90
7822;DHT22;3956;50.558;9.678;2022-07-29T06:25:41;17.20;99.90
7822;DHT22;3956;50.558;9.678;2022-07-29T06:28:10;17.10;1.00
7822;DHT22;3956;50.558;9.678;2022-07-29T06:30:39;17.00;1.00
7822;DHT22;3956;50.558;9.678;2022-07-29T06:33:08;16.80;1.00
7822;DHT22;3956;50.558;9.678;2022-07-29T06:35:36;16.60;1.00
7822;DHT22;3956;50.558;9.678;2022-07-29T06:38:12;16.60;1.00
7822;DHT22;3956;50.558;9.678;2022-07-29T06:40:58;16.70;1.00
7822;DHT22;3956;50.558;9.678;2022-07-29T06:43:33;16.90;99.90
7822;DHT22;3956;50.558;9.678;2022-07-29T06:46:20;15.80;1.00
7822;DHT22;3956;50.558;9.678;2022-07-29T06:48:50;16.30;1.00
7822;DHT22;3956;50.558;9.678;2022-07-29T06:51:20;16.20;1.00
7822;DHT22;3956;50.558;9.678;2022-07-29T06:53:51;16.30;99.90
7822;DHT22;3956;50.558;9.678;2022-07-29T06:56:29;16.20;1.00
7822;DHT22;3956;50.558;9.678;2022-07-29T06:59:06;16.20;1.00
7822;DHT22;3956;50.558;9.678;2022-07-29T07:01:35;16.20;1.00
7822;DHT22;3956;50.558;9.678;2022-07-29T07:04:04;16.20;1.00
7822;DHT22;3956;50.558;9.678;2022-07-29T07:06:32;16.10;1.00
7822;DHT22;3956;50.558;9.678;2022-07-29T07:09:04;15.90;1.00
7822;DHT22;3956;50.558;9.678;2022-07-29T07:11:32;15.80;1.00
7822;DHT22;3956;50.558;9.678;2022-07-29T07:14:01;15.70;1.00
7822;DHT22;3956;50.558;9.678;2022-07-29T07:16:30;15.90;1.00
7822;DHT22;3956;50.558;9.678;2022-07-29T07:18:59;16.10;1.00
7822;DHT22;3956;50.558;9.678;2022-07-29T07:21:28;16.00;1.00
7822;DHT22;3956;50.558;9.678;2022-07-29T07:23:57;15.90;1.00
7822;DHT22;3956;50.558;9.678;2022-07-29T07:26:28;15.80;1.00
7822;DHT22;3956;50.558;9.678;2022-07-29T07:28:56;16.00;1.00
7822;DHT22;3956;50.558;9.678;2022-07-29T07:31:25;16.20;1.00
7822;DHT22;3956;50.558;9.678;2022-07-29T07:33:53;16.20;1.00
7822;DHT22;3956;50.558;9.678;2022-07-29T07:36:22;16.20;1.00
7822;DHT22;3956;50.558;9.678;2022-07-29T07:38:52;16.40;1.00
7822;DHT22;3956;50.558;9.678;2022-07-29T07:41:20;16.90;1.00
7822;DHT22;3956;50.558;9.678;2022-07-29T07:43:50;17.10;1.00
7822;DHT22;3956;50.558;9.678;2022-07-29T07:46:21;17.30;1.00
7822;DHT22;3956;50.558;9.678;2022-07-29T07:48:49;17.50;1.00
7822;DHT22;3956;50.558;9.678;2022-07-29T07:51:19;17.70;1.00
7822;DHT22;3956;50.558;9.678;2022-07-29T07:53:47;17.50;1.00
7822;DHT22;3956;50.558;9.678;2022-07-29T07:56:16;17.40;1.00
7822;DHT22;3956;50.558;9.678;2022-07-29T07:58:44;17.20;1.00
7822;DHT22;3956;50.558;9.678;2022-07-29T08:01:14;17.10;1.00
7822;DHT22;3956;50.558;9.678;2022-07-29T08:03:46;17.00;1.00
7822;DHT22;3956;50.558;9.678;2022-07-29T08:06:14;17.10;1.00
7822;DHT22;3956;50.558;9.678;2022-07-29T08:08:42;16.90;1.00
7822;DHT22;3956;50.558;9.678;2022-07-29T08:11:12;16.60;1.00
7822;DHT22;3956;50.558;9.678;2022-07-29T08:13:41;16.80;1.00
7822;DHT22;3956;50.558;9.678;2022-07-29T08:16:11;16.80;1.00
7822;DHT22;3956;50.558;9.678;2022-07-29T08:18:44;16.90;1.00
7822;DHT22;3956;50.558;9.678;2022-07-29T08:21:14;17.00;1.00
7822;DHT22;3956;50.558;9.678;2022-07-29T08:23:43;16.90;1.00
7822;DHT22;3956;50.558;9.678;2022-07-29T08:26:27;16.40;1.00
7822;DHT22;3956;50.558;9.678;2022-07-29T08:28:56;16.20;1.00
7822;DHT22;3956;50.558;9.678;2022-07-29T08:31:24;16.40;1.00
7822;DHT22;3956;50.558;9.678;2022-07-29T08:33:54;16.60;1.00
7822;DHT22;3956;50.558;9.678;2022-07-29T08:36:28;16.80;1.00
7822;DHT22;3956;50.558;9.678;2022-07-29T08:38:57;16.90;1.00
7822;DHT22;3956;50.558;9.678;2022-07-29T08:41:25;17.00;1.00
7822;DHT22;3956;50.558;9.678;2022-07-29T08:43:54;17.00;1.00
7822;DHT22;3956;50.558;9.678;2022-07-29T08:46:23;17.00;1.00
7822;DHT22;3956;50.558;9.678;2022-07-29T08:48:53;16.80;1.00
7822;DHT22;3956;50.558;9.678;2022-07-29T08:51:24;17.20;1.00
7822;DHT22;3956;50.558;9.678;2022-07-29T08:53:54;17.20;1.00
7822;DHT22;3956;50.558;9.678;2022-07-29T08:56:23;17.30;1.00
7822;DHT22;3956;50.558;9.678;2022-07-29T08:58:53;17.30;1.00
7822;DHT22;3956;50.558;9.678;2022-07-29T09:01:24;17.10;1.00
7822;DHT22;3956;50.558;9.678;2022-07-29T09:04:11;17.30;1.00
7822;DHT22;3956;50.558;9.678;2022-07-29T09:06:43;17.60;1.00
7822;DHT22;3956;50.558;9.678;2022-07-29T09:09:13;17.90;1.00
7822;DHT22;3956;50.558;9.678;2022-07-29T09:11:42;18.00;99.90
7822;DHT22;3956;50.558;9.678;2022-07-29T09:14:12;18.20;99.90
7822;DHT22;3956;50.558;9.678;2022-07-29T09:16:45;18.30;99.90
7822;DHT22;3956;50.558;9.678;2022-07-29T09:19:31;18.40;99.90
7822;DHT22;3956;50.558;9.678;2022-07-29T09:22:02;18.70;99.90
7822;DHT22;3956;50.558;9.678;2022-07-29T09:24:41;19.50;99.90
7822;DHT22;3956;50.558;9.678;2022-07-29T09:27:17;19.10;99.90
7822;DHT22;3956;50.558;9.678;2022-07-29T09:29:46;18.80;99.90
7822;DHT22;3956;50.558;9.678;2022-07-29T09:32:14;18.70;99.90
7822;DHT22;3956;50.558;9.678;2022-07-29T09:34:44;18.90;99.90
7822;DHT22;3956;50.558;9.678;2022-07-29T09:37:26;20.10;99.90
7822;DHT22;3956;50.558;9.678;2022-07-29T09:39:55;20.70;99.90
7822;DHT22;3956;50.558;9.678;2022-07-29T09:42:29;19.70;99.90
7822;DHT22;3956;50.558;9.678;2022-07-29T09:45:01;19.70;99.90
7822;DHT22;3956;50.558;9.678;2022-07-29T09:47:41;19.90;99.90
7822;DHT22;3956;50.558;9.678;2022-07-29T09:50:13;20.10;99.90
7822;DHT22;3956;50.558;9.678;2022-07-29T09:52:47;20.20;99.90
7822;DHT22;3956;50.558;9.678;2022-07-29T09:55:17;20.00;99.90
7822;DHT22;3956;50.558;9.678;2022-07-29T09:57:46;20.20;99.90
7822;DHT22;3956;50.558;9.678;2022-07-29T10:00:16;20.40;99.90
7822;DHT22;3956;50.558;9.678;2022-07-29T10:02:47;20.60;99.90
7822;DHT22;3956;50.558;9.678;2022-07-29T10:05:22;20.90;99.90
7822;DHT22;3956;50.558;9.678;2022-07-29T10:08:03;20.70;99.90
7822;DHT22;3956;50.558;9.678;2022-07-29T10:10:33;21.00;99.90
7822;DHT22;3956;50.558;9.678;2022-07-29T10:13:05;21.20;99.90
7822;DHT22;3956;50.558;9.678;2022-07-29T10:15:42;21.30;99.90
7822;DHT22;3956;50.558;9.678;2022-07-29T10:18:14;21.40;99.90
7822;DHT22;3956;50.558;9.678;2022-07-29T10:20:46;21.60;99.90
7822;DHT22;3956;50.558;9.678;2022-07-29T10:23:15;21.50;99.90
7822;DHT22;3956;50.558;9.678;2022-07-29T10:25:45;21.60;99.90
7822;DHT22;3956;50.558;9.678;2022-07-29T10:28:14;21.80;99.90
7822;DHT22;3956;50.558;9.678;2022-07-29T10:30:43;21.70;99.90
7822;DHT22;3956;50.558;9.678;2022-07-29T10:33:25;21.70;99.90
7822;DHT22;3956;50.558;9.678;2022-07-29T10:36:19;21.80;99.90
7822;DHT22;3956;50.558;9.678;2022-07-29T10:38:55;21.60;99.90
7822;DHT22;3956;50.558;9.678;2022-07-29T10:41:39;21.60;99.90
7822;DHT22;3956;50.558;9.678;2022-07-29T10:44:17;21.80;99.90
7822;DHT22;3956;50.558;9.678;2022-07-29T10:46:50;21.60;99.90
7822;DHT22;3956;50.558;9.678;2022-07-29T10:49:21;21.80;99.90
7822;DHT22;3956;50.558;9.678;2022-07-29T10:51:55;22.00;99.90
7822;DHT22;3956;50.558;9.678;2022-07-29T10:54:42;22.60;99.90
7822;DHT22;3956;50.558;9.678;2022-07-29T10:57:13;22.60;99.90
7822;DHT22;3956;50.558;9.678;2022-07-29T10:59:43;22.80;99.90
7822;DHT22;3956;50.558;9.678;2022-07-29T11:02:42;22.70;99.90
7822;DHT22;3956;50.558;9.678;2022-07-29T11:05:13;22.80;99.90
7822;DHT22;3956;50.558;9.678;2022-07-29T11:08:20;23.30;99.90
7822;DHT22;3956;50.558;9.678;2022-07-29T11:13:49;23.80;99.90
7822;DHT22;3956;50.558;9.678;2022-07-29T11:16:19;23.60;99.90
7822;DHT22;3956;50.558;9.678;2022-07-29T11:19:19;23.90;99.90
7822;DHT22;3956;50.558;9.678;2022-07-29T11:21:55;23.60;99.90
7822;DHT22;3956;50.558;9.678;2022-07-29T11:24:27;23.60;99.90
7822;DHT22;3956;50.558;9.678;2022-07-29T11:27:09;23.80;99.90
7822;DHT22;3956;50.558;9.678;2022-07-29T11:29:48;24.20;99.90
7822;DHT22;3956;50.558;9.678;2022-07-29T11:32:18;24.50;99.90
7822;DHT22;3956;50.558;9.678;2022-07-29T11:35:17;24.60;99.90
7822;DHT22;3956;50.558;9.678;2022-07-29T11:38:23;24.60;99.90
7822;DHT22;3956;50.558;9.678;2022-07-29T11:41:24;24.40;99.90
7822;DHT22;3956;50.558;9.678;2022-07-29T11:43:54;24.70;99.90
7822;DHT22;3956;50.558;9.678;2022-07-29T11:46:47;24.50;99.90
7822;DHT22;3956;50.558;9.678;2022-07-29T11:49:19;24.60;99.90
7822;DHT22;3956;50.558;9.678;2022-07-29T11:51:59;25.00;99.90
7822;DHT22;3956;50.558;9.678;2022-07-29T11:54:35;25.40;99.90
7822;DHT22;3956;50.558;9.678;2022-07-29T11:57:25;25.50;99.90
7822;DHT22;3956;50.558;9.678;2022-07-29T12:00:28;25.60;99.90
7822;DHT22;3956;50.558;9.678;2022-07-29T12:02:59;25.20;99.90
7822;DHT22;3956;50.558;9.678;2022-07-29T12:05:34;25.30;99.90
7822;DHT22;3956;50.558;9.678;2022-07-29T12:08:15;25.30;99.90
7822;DHT22;3956;50.558;9.678;2022-07-29T12:10:48;25.60;99.90
7822;DHT22;3956;50.558;9.678;2022-07-29T12:13:21;25.70;99.90
7822;DHT22;3956;50.558;9.678;2022-07-29T12:16:04;25.60;99.90
7822;DHT22;3956;50.558;9.678;2022-07-29T12:18:33;25.90;99.90
7822;DHT22;3956;50.558;9.678;2022-07-29T12:21:04;26.20;99.90
7822;DHT22;3956;50.558;9.678;2022-07-29T12:23:38;26.40;99.90
7822;DHT22;3956;50.558;9.678;2022-07-29T12:26:21;26.20;99.90
7822;DHT22;3956;50.558;9.678;2022-07-29T12:28:53;25.80;99.90
7822;DHT22;3956;50.558;9.678;2022-07-29T12:31:28;25.70;99.90
7822;DHT22;3956;50.558;9.678;2022-07-29T12:34:10;25.90;99.90
7822;DHT22;3956;50.558;9.678;2022-07-29T12:36:43;26.20;99.90
7822;DHT22;3956;50.558;9.678;2022-07-29T12:39:18;26.30;99.90
7822;DHT22;3956;50.558;9.678;2022-07-29T12:41:47;26.50;99.90
7822;DHT22;3956;50.558;9.678;2022-07-29T12:44:22;26.20;99.90
7822;DHT22;3956;50.558;9.678;2022-07-29T12:47:02;25.80;99.90
7822;DHT22;3956;50.558;9.678;2022-07-29T12:49:30;26.00;99.90
7822;DHT22;3956;50.558;9.678;2022-07-29T12:52:26;26.10;99.90
7822;DHT22;3956;50.558;9.678;2022-07-29T12:55:04;26.80;99.90
7822;DHT22;3956;50.558;9.678;2022-07-29T12:57:45;27.20;99.90
7822;DHT22;3956;50.558;9.678;2022-07-29T13:00:16;27.10;99.90
7822;DHT22;3956;50.558;9.678;2022-07-29T13:02:54;26.90;99.90
7822;DHT22;3956;50.558;9.678;2022-07-29T13:05:24;26.70;99.90
7822;DHT22;3956;50.558;9.678;2022-07-29T13:07:52;27.10;99.90
7822;DHT22;3956;50.558;9.678;2022-07-29T13:10:23;27.50;99.90
7822;DHT22;3956;50.558;9.678;2022-07-29T13:13:03;27.50;99.90
7822;DHT22;3956;50.558;9.678;2022-07-29T13:15:34;27.30;99.90
7822;DHT22;3956;50.558;9.678;2022-07-29T13:18:03;27.60;99.90
7822;DHT22;3956;50.558;9.678;2022-07-29T13:20:32;27.30;99.90
7822;DHT22;3956;50.558;9.678;2022-07-29T13:23:00;27.10;99.90
7822;DHT22;3956;50.558;9.678;2022-07-29T13:25:31;27.20;99.90
7822;DHT22;3956;50.558;9.678;2022-07-29T13:28:00;27.50;99.90
7822;DHT22;3956;50.558;9.678;2022-07-29T13:30:28;27.40;99.90
7822;DHT22;3956;50.558;9.678;2022-07-29T13:32:59;27.90;99.90
7822;DHT22;3956;50.558;9.678;2022-07-29T13:35:27;28.30;99.90
7822;DHT22;3956;50.558;9.678;2022-07-29T13:37:56;28.30;99.90
7822;DHT22;3956;50.558;9.678;2022-07-29T13:40:27;27.60;99.90
7822;DHT22;3956;50.558;9.678;2022-07-29T13:42:57;27.70;99.90
7822;DHT22;3956;50.558;9.678;2022-07-29T13:45:27;27.70;99.90
7822;DHT22;3956;50.558;9.678;2022-07-29T13:47:57;28.20;99.90
7822;DHT22;3956;50.558;9.678;2022-07-29T13:50:26;28.50;99.90
7822;DHT22;3956;50.558;9.678;2022-07-29T13:52:55;28.20;99.90
7822;DHT22;3956;50.558;9.678;2022-07-29T13:55:24;28.30;99.90
7822;DHT22;3956;50.558;9.678;2022-07-29T13:57:52;28.00;99.90
7822;DHT22;3956;50.558;9.678;2022-07-29T14:00:21;28.40;99.90
7822;DHT22;3956;50.558;9.678;2022-07-29T14:02:52;28.60;99.90
7822;DHT22;3956;50.558;9.678;2022-07-29T14:05:23;28.70;99.90
7822;DHT22;3956;50.558;9.678;2022-07-29T14:07:51;28.50;99.90
7822;DHT22;3956;50.558;9.678;2022-07-29T14:10:19;27.30;99.90
7822;DHT22;3956;50.558;9.678;2022-07-29T14:12:48;27.70;99.90
7822;DHT22;3956;50.558;9.678;2022-07-29T14:15:23;27.40;99.90
7822;DHT22;3956;50.558;9.678;2022-07-29T14:17:52;28.00;99.90
7822;DHT22;3956;50.558;9.678;2022-07-29T14:20:22;27.90;99.90
7822;DHT22;3956;50.558;9.678;2022-07-29T14:22:50;27.80;99.90
7822;DHT22;3956;50.558;9.678;2022-07-29T14:25:19;27.90;99.90
7822;DHT22;3956;50.558;9.678;2022-07-29T14:27:49;27.60;99.90
7822;DHT22;3956;50.558;9.678;2022-07-29T14:30:21;27.60;99.90
7822;DHT22;3956;50.558;9.678;2022-07-29T14:32:50;28.10;99.90
7822;DHT22;3956;50.558;9.678;2022-07-29T14:35:18;28.40;99.90
7822;DHT22;3956;50.558;9.678;2022-07-29T14:37:48;28.30;99.90
7822;DHT22;3956;50.558;9.678;2022-07-29T14:40:16;28.10;99.90
7822;DHT22;3956;50.558;9.678;2022-07-29T14:42:45;28.40;99.90
7822;DHT22;3956;50.558;9.678;2022-07-29T14:45:13;28.70;99.90
7822;DHT22;3956;50.558;9.678;2022-07-29T14:47:44;29.20;99.90
7822;DHT22;3956;50.558;9.678;2022-07-29T14:50:13;29.00;99.90
7822;DHT22;3956;50.558;9.678;2022-07-29T14:52:50;28.60;99.90
7822;DHT22;3956;50.558;9.678;2022-07-29T14:55:18;28.50;99.90
7822;DHT22;3956;50.558;9.678;2022-07-29T14:57:47;28.80;99.90
7822;DHT22;3956;50.558;9.678;2022-07-29T15:00:17;28.20;99.90
7822;DHT22;3956;50.558;9.678;2022-07-29T15:02:45;28.80;99.90
7822;DHT22;3956;50.558;9.678;2022-07-29T15:05:30;28.50;99.90
7822;DHT22;3956;50.558;9.678;2022-07-29T15:08:00;28.90;99.90
7822;DHT22;3956;50.558;9.678;2022-07-29T15:10:30;28.80;99.90
7822;DHT22;3956;50.558;9.678;2022-07-29T15:12:58;28.40;99.90
7822;DHT22;3956;50.558;9.678;2022-07-29T15:15:26;28.30;99.90
7822;DHT22;3956;50.558;9.678;2022-07-29T15:17:56;28.30;99.90
7822;DHT22;3956;50.558;9.678;2022-07-29T15:20:24;28.70;99.90
7822;DHT22;3956;50.558;9.678;2022-07-29T15:22:54;28.50;99.90
7822;DHT22;3956;50.558;9.678;2022-07-29T15:25:25;28.50;99.90
7822;DHT22;3956;50.558;9.678;2022-07-29T15:27:54;28.50;99.90
7822;DHT22;3956;50.558;9.678;2022-07-29T15:30:28;28.60;99.90
7822;DHT22;3956;50.558;9.678;2022-07-29T15:33:00;28.60;99.90
7822;DHT22;3956;50.558;9.678;2022-07-29T15:35:29;28.10;99.90
7822;DHT22;3956;50.558;9.678;2022-07-29T15:37:57;28.10;99.90
7822;DHT22;3956;50.558;9.678;2022-07-29T15:40:30;27.90;99.90
7822;DHT22;3956;50.558;9.678;2022-07-29T15:42:58;28.20;99.90
7822;DHT22;3956;50.558;9.678;2022-07-29T15:45:36;28.20;99.90
7822;DHT22;3956;50.558;9.678;2022-07-29T15:48:07;28.00;99.90
7822;DHT22;3956;50.558;9.678;2022-07-29T15:50:40;27.80;99.90
7822;DHT22;3956;50.558;9.678;2022-07-29T15:53:13;27.80;99.90
7822;DHT22;3956;50.558;9.678;2022-07-29T15:55:44;27.70;99.90
7822;DHT22;3956;50.558;9.678;2022-07-29T15:58:17;27.60;99.90
7822;DHT22;3956;50.558;9.678;2022-07-29T16:00:47;27.50;99.90
7822;DHT22;3956;50.558;9.678;2022-07-29T16:03:20;27.40;99.90
7822;DHT22;3956;50.558;9.678;2022-07-29T16:05:50;27.40;99.90
7822;DHT22;3956;50.558;9.678;2022-07-29T16:08:22;27.30;99.90
7822;DHT22;3956;50.558;9.678;2022-07-29T16:10:53;27.20;99.90
7822;DHT22;3956;50.558;9.678;2022-07-29T16:13:24;27.10;99.90
7822;DHT22;3956;50.558;9.678;2022-07-29T16:19:44;26.90;99.90
7822;DHT22;3956;50.558;9.678;2022-07-29T16:22:15;26.80;99.90
7822;DHT22;3956;50.558;9.678;2022-07-29T16:24:45;26.60;99.90
7822;DHT22;3956;50.558;9.678;2022-07-29T16:27:17;25.80;99.90
7822;DHT22;3956;50.558;9.678;2022-07-29T16:30:05;23.60;99.90
7822;DHT22;3956;50.558;9.678;2022-07-29T16:32:37;22.80;99.90
7822;DHT22;3956;50.558;9.678;2022-07-29T16:35:08;22.40;99.90
7822;DHT22;3956;50.558;9.678;2022-07-29T16:37:39;21.60;99.90
7822;DHT22;3956;50.558;9.678;2022-07-29T16:40:09;21.20;99.90
7822;DHT22;3956;50.558;9.678;2022-07-29T16:42:42;21.00;99.90
7822;DHT22;3956;50.558;9.678;2022-07-29T16:45:14;20.80;99.90
7822;DHT22;3956;50.558;9.678;2022-07-29T16:47:47;20.00;99.90